Time;durP1;ratioP1;P1;durP2;ratioP2;P2;SDS_P1;SDS_P2;PMS_P1;PMS_P2;Temp;Humidity;BMP_temperature;BMP_pressure;BME280_temperature;BME280_humidity;BME280_pressure;Samples;Min_cycle;Max_cycle;Signal;HPM_P1;HPM_P2
2022/05/18 00:01:59;;;;;;;16.40;12.47;;;;;;;;;;1780285;80;21091;-90
2022/05/18 00:04:29;;;;;;;13.45;11.25;;;;;;;;;;1780446;79;21245;-91
2022/05/18 00:07:00;;;;;;;14.20;11.33;;;;;;;;;;1780558;80;21193;-92
2022/05/18 00:09:31;;;;;;;13.48;12.00;;;;;;;;;;1782838;78;21196;-91
2022/05/18 00:12:02;;;;;;;13.95;11.57;;;;;;;;;;1783227;80;21171;-91
2022/05/18 00:14:32;;;;;;;16.07;10.78;;;;;;;;;;1781639;80;21186;-92
2022/05/18 00:17:05;;;;;;;12.15;10.75;;;;;;;;;;1781200;80;21108;-91
2022/05/18 00:19:35;;;;;;;14.65;11.53;;;;;;;;;;1781121;80;21135;-91
2022/05/18 00:22:11;;;;;;;14.38;11.22;;;;;;;;;;1780545;80;21174;-92
2022/05/18 00:24:44;;;;;;;11.83;10.63;;;;;;;;;;1746954;81;21090;-91
2022/05/18 00:27:14;;;;;;;12.55;10.28;;;;;;;;;;1780736;80;21878;-92
2022/05/18 00:29:44;;;;;;;15.18;11.03;;;;;;;;;;1781189;80;21221;-91
2022/05/18 00:32:16;;;;;;;13.13;10.03;;;;;;;;;;1780936;80;21118;-91
2022/05/18 00:34:46;;;;;;;12.43;10.08;;;;;;;;;;1781097;80;21174;-94
2022/05/18 00:37:16;;;;;;;12.33;11.03;;;;;;;;;;1780766;79;21293;-77
2022/05/18 00:39:46;;;;;;;13.13;9.63;;;;;;;;;;1751372;81;21222;-77
2022/05/18 00:42:19;;;;;;;11.48;10.00;;;;;;;;;;1774666;79;21115;-77
2022/05/18 00:44:50;;;;;;;13.10;10.08;;;;;;;;;;1778677;79;21693;-76
2022/05/18 00:47:20;;;;;;;12.15;9.78;;;;;;;;;;1781706;80;21315;-76
2022/05/18 00:49:52;;;;;;;11.78;9.98;;;;;;;;;;1781425;79;21188;-76
2022/05/18 00:52:25;;;;;;;15.70;10.00;;;;;;;;;;1780489;79;21135;-75
2022/05/18 00:54:57;;;;;;;9.48;8.48;;;;;;;;;;1779515;80;21210;-76
2022/05/18 00:57:28;;;;;;;13.65;9.43;;;;;;;;;;1779412;79;21711;-74
2022/05/18 01:00:00;;;;;;;10.60;9.03;;;;;;;;;;1778126;79;21151;-76
2022/05/18 01:02:31;;;;;;;11.38;9.60;;;;;;;;;;1779207;80;21186;-74
2022/05/18 01:05:03;;;;;;;10.60;9.25;;;;;;;;;;1779791;80;21090;-75
2022/05/18 01:07:36;;;;;;;11.18;9.98;;;;;;;;;;1776520;79;21229;-75
2022/05/18 01:10:07;;;;;;;14.58;9.75;;;;;;;;;;1796138;79;21216;-76
2022/05/18 01:12:37;;;;;;;10.20;9.13;;;;;;;;;;1796030;79;21186;-76
2022/05/18 01:15:09;;;;;;;11.38;10.13;;;;;;;;;;1775152;79;21103;-78
2022/05/18 01:17:41;;;;;;;12.28;10.25;;;;;;;;;;1779050;80;21174;-76
2022/05/18 01:20:12;;;;;;;11.68;8.93;;;;;;;;;;1789443;79;21110;-76
2022/05/18 01:22:44;;;;;;;12.70;9.30;;;;;;;;;;1776875;79;21154;-77
2022/05/18 01:25:15;;;;;;;10.48;8.85;;;;;;;;;;1780156;79;21676;-77
2022/05/18 01:27:47;;;;;;;14.00;10.80;;;;;;;;;;1777651;79;21579;-77
2022/05/18 01:30:17;;;;;;;11.25;9.05;;;;;;;;;;1772464;79;21201;-77
2022/05/18 01:32:49;;;;;;;11.35;9.63;;;;;;;;;;1771932;79;21135;-77
2022/05/18 01:35:21;;;;;;;12.63;9.28;;;;;;;;;;1766730;80;21115;-76
2022/05/18 01:37:57;;;;;;;13.20;8.58;;;;;;;;;;1756409;80;21203;-77
2022/05/18 01:40:25;;;;;;;12.15;9.40;;;;;;;;;;1754654;81;21112;-76
2022/05/18 01:42:56;;;;;;;11.85;9.68;;;;;;;;;;1738339;80;21131;-76
2022/05/18 01:45:29;;;;;;;12.85;9.25;;;;;;;;;;1751598;80;21683;-77
2022/05/18 01:48:00;;;;;;;11.03;9.65;;;;;;;;;;1756200;81;21199;-76
2022/05/18 01:50:31;;;;;;;13.60;10.43;;;;;;;;;;1740115;80;21201;-76
2022/05/18 01:53:03;;;;;;;13.53;10.10;;;;;;;;;;1751410;80;21240;-77
2022/05/18 01:55:33;;;;;;;11.60;9.70;;;;;;;;;;1757505;80;21160;-77
2022/05/18 01:58:04;;;;;;;12.58;9.95;;;;;;;;;;1772685;79;21129;-75
2022/05/18 02:00:35;;;;;;;10.93;9.70;;;;;;;;;;1774741;79;21657;-77
2022/05/18 02:03:05;;;;;;;12.18;10.38;;;;;;;;;;1774630;79;21284;-78
2022/05/18 02:05:36;;;;;;;11.60;10.30;;;;;;;;;;1774078;79;21296;-78
2022/05/18 02:08:07;;;;;;;12.18;9.80;;;;;;;;;;1774419;80;21186;-77
2022/05/18 02:10:37;;;;;;;12.00;10.38;;;;;;;;;;1780961;79;21694;-76
2022/05/18 02:13:07;;;;;;;14.83;9.83;;;;;;;;;;1775699;80;21138;-76
2022/05/18 02:15:37;;;;;;;13.25;10.20;;;;;;;;;;1772243;79;21217;-76
2022/05/18 02:18:07;;;;;;;13.15;9.75;;;;;;;;;;1775407;79;21806;-77
2022/05/18 02:20:38;;;;;;;12.25;9.50;;;;;;;;;;1777606;79;21674;-75
2022/05/18 02:23:09;;;;;;;15.15;11.00;;;;;;;;;;1783536;79;21147;-76
2022/05/18 02:25:41;;;;;;;17.00;11.95;;;;;;;;;;1758236;81;21124;-77
2022/05/18 02:28:11;;;;;;;12.98;10.45;;;;;;;;;;1774074;79;21178;-78
2022/05/18 02:30:42;;;;;;;12.18;10.03;;;;;;;;;;1770557;79;21210;-76
2022/05/18 02:33:12;;;;;;;12.43;9.63;;;;;;;;;;1748802;80;21125;-77
2022/05/18 02:35:42;;;;;;;13.55;9.80;;;;;;;;;;1772962;80;21214;-76
2022/05/18 02:38:13;;;;;;;12.35;9.85;;;;;;;;;;1753180;80;21618;-76
2022/05/18 02:40:43;;;;;;;10.70;9.43;;;;;;;;;;1770789;79;21501;-76
2022/05/18 02:43:14;;;;;;;11.93;10.18;;;;;;;;;;1768006;80;21223;-76
2022/05/18 02:45:44;;;;;;;12.95;10.15;;;;;;;;;;1774056;80;21201;-77
2022/05/18 02:48:14;;;;;;;13.00;10.05;;;;;;;;;;1776986;80;21146;-77
2022/05/18 02:50:47;;;;;;;12.33;9.95;;;;;;;;;;1772048;80;21194;-76
2022/05/18 02:53:17;;;;;;;12.65;10.58;;;;;;;;;;1775042;79;21190;-77
2022/05/18 02:58:20;;;;;;;15.05;11.03;;;;;;;;;;1778442;80;21601;-76
2022/05/18 03:00:53;;;;;;;12.65;9.63;;;;;;;;;;1772235;79;21186;-78
2022/05/18 03:03:25;;;;;;;11.28;10.08;;;;;;;;;;1773429;79;21249;-76
2022/05/18 03:05:56;;;;;;;13.65;9.90;;;;;;;;;;1773394;79;21168;-78
2022/05/18 03:08:26;;;;;;;11.30;10.10;;;;;;;;;;1777439;80;21095;-77
2022/05/18 03:10:58;;;;;;;12.18;9.88;;;;;;;;;;1768871;80;21127;-78
2022/05/18 03:13:29;;;;;;;13.28;10.20;;;;;;;;;;1777506;79;21305;-75
2022/05/18 03:16:02;;;;;;;11.68;9.70;;;;;;;;;;1776087;79;21213;-79
2022/05/18 03:18:32;;;;;;;10.78;9.28;;;;;;;;;;1776717;80;21245;-77
2022/05/18 03:23:45;;;;;;;12.40;9.50;;;;;;;;;;1774193;79;21154;-77
2022/05/18 03:26:17;;;;;;;10.68;9.55;;;;;;;;;;1775064;80;21241;-78
2022/05/18 03:28:49;;;;;;;9.83;8.23;;;;;;;;;;1774012;80;21249;-79
2022/05/18 03:31:20;;;;;;;9.75;8.18;;;;;;;;;;1780067;79;21154;-77
2022/05/18 03:33:52;;;;;;;10.82;8.45;;;29.60;99.90;;;;;;1776323;79;21182;-77
2022/05/18 03:36:23;;;;;;;11.33;8.55;;;;;;;;;;1774643;80;21178;-76
2022/05/18 03:39:11;;;;;;;14.28;9.13;;;;;;;;;;1775919;79;21178;-79
2022/05/18 03:41:43;;;;;;;10.30;8.53;;;30.10;92.30;;;;;;1739473;82;21305;-77
2022/05/18 03:44:14;;;;;;;10.82;8.93;;;30.20;92.70;;;;;;1744445;80;21211;-77
2022/05/18 03:46:44;;;;;;;10.35;9.03;;;30.10;92.30;;;;;;1708654;82;21205;-78
2022/05/18 03:49:16;;;;;;;10.68;8.45;;;30.20;92.10;;;;;;1744241;80;21761;-76
2022/05/18 03:51:47;;;;;;;9.90;8.00;;;30.10;92.20;;;;;;1749680;80;21195;-78
2022/05/18 03:54:19;;;;;;;12.05;8.23;;;30.00;92.20;;;;;;1736593;82;21654;-76
2022/05/18 03:56:50;;;;;;;8.63;7.72;;;30.30;92.30;;;;;;1738625;81;21626;-76
2022/05/18 03:59:21;;;;;;;8.90;8.03;;;29.90;92.80;;;;;;1745950;81;21162;-77
2022/05/18 04:01:52;;;;;;;8.90;7.62;;;30.00;92.60;;;;;;1744867;82;21189;-78
2022/05/18 04:04:23;;;;;;;9.68;8.05;;;29.80;92.60;;;;;;1749076;81;21271;-79
2022/05/18 04:06:57;;;;;;;12.00;8.53;;;29.80;92.80;;;;;;1768903;79;21178;-77
2022/05/18 04:09:28;;;;;;;10.43;7.78;;;30.00;93.10;;;;;;1777088;79;21121;-78
2022/05/18 04:12:01;;;;;;;10.15;8.88;;;30.10;92.60;;;;;;1772286;79;21198;-77
2022/05/18 04:14:31;;;;;;;10.85;8.80;;;30.20;92.10;;;;;;1776255;79;21189;-78
2022/05/18 04:17:02;;;;;;;8.73;7.83;;;30.20;92.70;;;;;;1771574;80;21616;-77
2022/05/18 04:19:33;;;;;;;13.25;8.03;;;30.50;93.60;;;;;;1775512;79;21256;-77
2022/05/18 04:22:05;;;;;;;11.35;8.10;;;30.50;94.60;;;;;;1769837;79;21157;-75
2022/05/18 04:24:36;;;;;;;12.25;8.28;;;30.50;96.30;;;;;;1775386;79;21198;-78
2022/05/18 04:27:07;;;;;;;9.63;8.50;;;;;;;;;;1774050;79;21667;-79
2022/05/18 04:29:39;;;;;;;11.33;8.75;;;30.60;94.30;;;;;;1772431;80;21307;-78
2022/05/18 04:32:11;;;;;;;13.48;9.05;;;30.90;93.90;;;;;;1780949;79;21178;-78
2022/05/18 04:34:44;;;;;;;9.73;8.23;;;30.50;92.80;;;;;;1773198;79;21698;-78
2022/05/18 04:37:14;;;;;;;11.90;9.68;;;30.50;92.70;;;;;;1753654;80;21139;-79
2022/05/18 04:39:48;;;;;;;11.90;9.28;;;30.40;93.20;;;;;;1780550;79;21127;-78
2022/05/18 04:42:22;;;;;;;9.50;8.50;;;30.60;93.10;;;;;;1772972;79;21118;-77
2022/05/18 04:44:52;;;;;;;14.65;9.55;;;30.80;91.80;;;;;;1777809;80;21217;-80
2022/05/18 04:47:25;;;;;;;10.98;8.83;;;30.90;91.90;;;;;;1770512;80;21153;-77
2022/05/18 04:49:57;;;;;;;11.15;8.15;;;31.00;92.60;;;;;;1766793;80;21723;-75
2022/05/18 04:52:29;;;;;;;11.25;8.03;;;30.90;93.10;;;;;;1776183;79;21147;-73
2022/05/18 04:55:00;;;;;;;8.85;7.60;;;30.80;93.40;;;;;;1767882;80;21697;-78
2022/05/18 04:57:30;;;;;;;9.45;7.65;;;31.10;92.10;;;;;;1767946;80;21155;-78
2022/05/18 05:00:02;;;;;;;9.58;8.45;;;31.10;90.60;;;;;;1761631;81;21203;-78
2022/05/18 05:02:36;;;;;;;9.40;8.40;;;30.90;93.80;;;;;;1770980;79;21705;-76
2022/05/18 05:05:10;;;;;;;9.60;8.13;;;31.30;94.40;;;;;;1774685;80;21229;-76
2022/05/18 05:07:41;;;;;;;9.48;7.87;;;31.30;96.10;;;;;;1776444;80;21175;-74
2022/05/18 05:10:12;;;;;;;9.00;7.83;;;30.90;95.90;;;;;;1764371;79;21121;-73
2022/05/18 05:12:45;;;;;;;8.23;7.17;;;30.80;95.60;;;;;;1766585;80;21140;-73
2022/05/18 05:15:16;;;;;;;7.35;6.60;;;31.20;96.40;;;;;;1772800;79;21175;-75
2022/05/18 05:17:48;;;;;;;10.72;7.72;;;30.90;95.60;;;;;;1773220;80;21182;-74
2022/05/18 05:20:20;;;;;;;7.75;6.97;;;31.00;95.70;;;;;;1769363;79;21143;-76
2022/05/18 05:22:50;;;;;;;8.45;6.70;;;31.00;95.90;;;;;;1770402;79;21235;-76
2022/05/18 05:25:21;;;;;;;10.03;7.00;;;31.00;96.10;;;;;;1775615;79;21139;-75
2022/05/18 05:27:53;;;;;;;11.22;6.65;;;30.70;96.10;;;;;;1778895;80;21166;-73
2022/05/18 05:30:24;;;;;;;8.88;6.42;;;30.80;97.40;;;;;;1775129;80;21559;-73
2022/05/18 05:32:58;;;;;;;9.13;7.53;;;30.90;94.50;;;;;;1772188;79;21606;-75
2022/05/18 05:35:30;;;;;;;9.75;6.83;;;30.90;94.90;;;;;;1776202;79;21950;-75
2022/05/18 05:38:01;;;;;;;9.80;6.08;;;31.10;94.60;;;;;;1776250;79;21523;-74
2022/05/18 05:40:33;;;;;;;9.50;6.40;;;31.40;99.90;;;;;;1773677;80;21657;-74
2022/05/18 05:43:08;;;;;;;14.00;7.67;;;;;;;;;;1763152;79;21213;-75
2022/05/18 05:45:41;;;;;;;11.73;7.70;;;;;;;;;;1770972;80;21115;-75
2022/05/18 05:48:19;;;;;;;12.28;7.08;;;;;;;;;;1769114;80;22030;-76
2022/05/18 05:50:51;;;;;;;7.50;5.85;;;31.50;99.90;;;;;;1772350;79;21145;-74
2022/05/18 05:53:23;;;;;;;7.90;5.75;;;31.40;99.90;;;;;;1766666;79;21221;-75
2022/05/18 05:55:56;;;;;;;7.78;6.80;;;;;;;;;;1755630;81;21247;-75
2022/05/18 05:58:27;;;;;;;9.40;6.97;;;31.80;99.90;;;;;;1777193;79;21217;-78
2022/05/18 06:01:01;;;;;;;8.43;7.03;;;;;;;;;;1776249;79;21162;-77
2022/05/18 06:03:33;;;;;;;10.40;7.17;;;;;;;;;;1791134;79;21121;-77
2022/05/18 06:06:04;;;;;;;8.28;7.03;;;;;;;;;;1767039;80;21183;-75
2022/05/18 06:08:35;;;;;;;9.58;7.58;;;;;;;;;;1772293;80;21853;-72
2022/05/18 06:11:06;;;;;;;12.45;7.12;;;;;;;;;;1770700;80;21248;-77
2022/05/18 06:13:36;;;;;;;8.15;7.03;;;;;;;;;;1773493;79;21194;-75
2022/05/18 06:16:08;;;;;;;11.70;6.55;;;;;;;;;;1772729;80;21268;-76
2022/05/18 06:18:38;;;;;;;9.70;6.87;;;;;;;;;;1772108;79;21799;-72
2022/05/18 06:21:11;;;;;;;8.90;7.15;;;;;;;;;;1771598;79;21236;-75
2022/05/18 06:23:41;;;;;;;8.80;6.90;;;;;;;;;;1766414;79;21206;-74
2022/05/18 06:26:11;;;;;;;8.25;6.65;;;;;;;;;;1773214;79;21158;-74
2022/05/18 06:28:42;;;;;;;8.78;6.95;;;;;;;;;;1776535;79;21273;-74
2022/05/18 06:31:14;;;;;;;8.95;6.80;;;;;;;;;;1769310;79;21166;-75
2022/05/18 06:33:44;;;;;;;8.08;6.17;;;;;;;;;;1770008;80;21213;-76
2022/05/18 06:36:15;;;;;;;11.05;6.40;;;;;;;;;;1760688;80;21147;-76
2022/05/18 06:38:45;;;;;;;10.25;7.30;;;;;;;;;;1767138;79;21239;-76
2022/05/18 06:41:21;;;;;;;7.03;6.15;;;;;;;;;;1777965;80;21131;-76
2022/05/18 06:43:46;;;;;;;8.10;7.05;;;;;;;;;;1770147;79;21167;-74
2022/05/18 06:46:17;;;;;;;7.75;6.97;;;;;;;;;;1777778;79;21142;-76
2022/05/18 06:48:48;;;;;;;8.63;6.47;;;;;;;;;;1766747;80;21159;-76
2022/05/18 06:51:20;;;;;;;9.25;8.20;;;;;;;;;;1750997;81;21188;-75
2022/05/18 06:53:55;;;;;;;8.68;7.83;;;;;;;;;;1740820;81;21525;-75
2022/05/18 06:56:24;;;;;;;9.00;7.97;;;;;;;;;;1750830;80;21234;-77
2022/05/18 06:58:57;;;;;;;10.58;8.98;;;31.90;95.90;;;;;;1754034;80;21206;-77
2022/05/18 07:01:31;;;;;;;11.28;8.28;;;31.90;96.10;;;;;;1768362;80;21204;-75
2022/05/18 07:04:03;;;;;;;11.48;8.13;;;31.90;96.80;;;;;;1776049;80;21201;-75
2022/05/18 07:06:36;;;;;;;11.28;8.18;;;31.10;97.40;;;;;;1774258;79;21229;-74
2022/05/18 07:09:12;;;;;;;11.78;9.40;;;31.90;97.50;;;;;;1774713;79;21225;-75
2022/05/18 07:11:50;;;;;;;9.45;8.45;;;32.10;99.90;;;;;;1773373;80;21671;-75
2022/05/18 07:14:26;;;;;;;11.10;9.07;;;31.90;95.80;;;;;;1780362;79;21771;-75
2022/05/18 07:16:57;;;;;;;12.10;9.65;;;31.90;95.40;;;;;;1774754;80;21162;-76
2022/05/18 07:19:30;;;;;;;9.63;8.63;;;32.20;95.50;;;;;;1756405;80;21233;-75
2022/05/18 07:22:12;;;;;;;15.87;9.53;;;;;;;;;;1752463;81;21119;-77
2022/05/18 07:24:42;;;;;;;8.85;7.62;;;32.10;92.50;;;;;;1753772;80;21202;-75
2022/05/18 07:27:17;;;;;;;10.25;8.08;;;32.20;93.20;;;;;;1777519;80;21770;-77
2022/05/18 07:29:49;;;;;;;9.58;7.90;;;31.90;95.20;;;;;;1774748;80;21141;-77
2022/05/18 07:32:19;;;;;;;10.63;7.85;;;;;;;;;;1778281;80;21171;-75
2022/05/18 07:34:54;;;;;;;10.65;7.60;;;32.30;95.00;;;;;;1776021;79;21194;-75
2022/05/18 07:37:25;;;;;;;8.08;7.05;;;32.00;95.90;;;;;;1776373;79;21142;-77
2022/05/18 07:39:56;;;;;;;8.48;6.30;;;31.90;95.50;;;;;;1781739;79;21173;-76
2022/05/18 07:42:27;;;;;;;9.23;7.62;;;32.20;95.90;;;;;;1775827;79;21143;-77
2022/05/18 07:44:58;;;;;;;7.97;6.45;;;32.00;96.70;;;;;;1775839;79;21201;-75
2022/05/18 07:47:31;;;;;;;8.75;6.20;;;31.90;97.70;;;;;;1757266;81;21176;-74
2022/05/18 07:50:02;;;;;;;8.18;6.50;;;31.80;98.50;;;;;;1776466;79;21239;-76
2022/05/18 07:52:34;;;;;;;8.20;6.50;;;31.80;98.90;;;;;;1772785;80;22040;-77
2022/05/18 07:55:05;;;;;;;10.90;6.78;;;32.10;99.90;;;;;;1774878;79;21147;-76
2022/05/18 07:57:38;;;;;;;9.10;5.45;;;31.80;99.90;;;;;;1776198;79;21264;-76
2022/05/18 08:00:12;;;;;;;6.40;5.15;;;32.10;99.50;;;;;;1774971;79;21245;-76
2022/05/18 08:02:44;;;;;;;6.40;5.25;;;31.80;97.70;;;;;;1768559;80;21209;-76
2022/05/18 08:05:15;;;;;;;8.00;5.22;;;32.10;95.90;;;;;;1766948;80;21530;-77
2022/05/18 08:07:48;;;;;;;12.23;8.10;;;31.70;96.90;;;;;;1769799;79;21657;-81
2022/05/18 08:15:30;;;;;;;9.00;6.17;;;31.60;99.90;;;;;;1779159;79;21150;-79
2022/05/18 08:18:07;;;;;;;6.80;6.10;;;31.60;98.90;;;;;;1780389;79;21191;-79
2022/05/18 08:20:45;;;;;;;6.05;5.45;;;31.80;99.40;;;;;;1777555;79;21163;-79
2022/05/18 08:23:20;;;;;;;10.65;5.47;;;31.50;99.50;;;;;;1731421;81;21162;-81
2022/05/18 08:25:54;;;;;;;8.43;5.80;;;31.70;97.70;;;;;;1745774;82;21700;-80
2022/05/18 08:28:26;;;;;;;7.72;5.35;;;31.60;96.90;;;;;;1745672;80;21259;-78
2022/05/18 08:30:57;;;;;;;7.60;5.60;;;31.50;96.70;;;;;;1745076;81;21231;-77
2022/05/18 08:33:31;;;;;;;7.75;5.12;;;31.40;96.80;;;;;;1747309;80;21209;-77
2022/05/18 08:36:05;;;;;;;7.40;5.45;;;31.30;96.80;;;;;;1747350;80;21203;-82
2022/05/18 08:38:40;;;;;;;8.83;5.37;;;31.30;96.70;;;;;;1743543;80;21269;-79
2022/05/18 08:41:19;;;;;;;8.63;5.47;;;31.40;96.70;;;;;;1747908;80;21333;-79
2022/05/18 08:43:53;;;;;;;8.80;6.08;;;31.20;96.90;;;;;;1728730;82;21243;-76
2022/05/18 08:46:26;;;;;;;7.67;5.85;;;31.40;97.30;;;;;;1748933;80;21252;-78
2022/05/18 08:49:00;;;;;;;9.60;5.47;;;31.10;97.30;;;;;;1732941;81;21247;-78
2022/05/18 08:51:35;;;;;;;8.10;5.85;;;31.00;97.10;;;;;;1749090;80;21176;-79
2022/05/18 08:54:09;;;;;;;6.90;5.40;;;30.90;96.80;;;;;;1718966;82;21157;-80
2022/05/18 08:56:44;;;;;;;7.12;5.50;;;31.00;97.00;;;;;;1746037;81;21183;-80
2022/05/18 08:59:17;;;;;;;5.37;4.80;;;30.90;97.10;;;;;;1745439;81;21226;-80
2022/05/18 09:01:51;;;;;;;5.87;5.25;;;31.00;97.10;;;;;;1741305;80;21216;-79
2022/05/18 09:04:25;;;;;;;9.80;7.58;;;31.00;97.30;;;;;;1746737;82;21337;-79
2022/05/18 09:06:58;;;;;;;8.90;7.90;;;31.10;97.70;;;;;;1746573;80;21907;-78
2022/05/18 09:12:06;;;;;;;9.85;7.90;;;31.10;98.00;;;;;;1752141;80;21188;-79
2022/05/18 09:14:39;;;;;;;11.28;8.35;;;31.00;98.60;;;;;;1749954;82;21279;-78
2022/05/18 09:17:24;;;;;;;8.23;7.30;;;30.90;99.00;;;;;;1737700;82;21176;-80
2022/05/18 09:19:53;;;;;;;7.35;6.30;;;31.10;98.90;;;;;;1742728;81;21163;-79
2022/05/18 09:22:26;;;;;;;8.03;6.58;;;31.20;98.90;;;;;;1776195;80;21304;-81
2022/05/18 09:25:00;;;;;;;8.68;6.25;;;31.20;98.80;;;;;;1774000;79;21171;-79
2022/05/18 09:27:35;;;;;;;8.58;6.85;;;31.10;98.70;;;;;;1781779;79;21247;-81
2022/05/18 09:30:09;;;;;;;10.18;7.45;;;30.90;98.80;;;;;;1767789;80;21218;-77
2022/05/18 09:32:42;;;;;;;11.20;7.65;;;31.10;99.30;;;;;;1779702;80;21166;-80
2022/05/18 09:35:16;;;;;;;10.48;7.72;;;30.80;99.70;;;;;;1778456;80;21163;-80
2022/05/18 09:37:50;;;;;;;13.50;7.92;;;30.90;99.20;;;;;;1760873;80;21654;-79
2022/05/18 09:40:24;;;;;;;10.40;7.80;;;30.80;99.50;;;;;;1770831;80;21243;-79
2022/05/18 09:42:58;;;;;;;9.35;7.45;;;30.90;99.90;;;;;;1760514;80;21199;-79
2022/05/18 09:45:32;;;;;;;8.90;7.60;;;31.00;99.90;;;;;;1772978;79;21728;-79
2022/05/18 09:48:05;;;;;;;9.48;7.78;;;31.00;99.90;;;;;;1763538;80;21961;-79
2022/05/18 09:50:38;;;;;;;11.05;8.05;;;30.80;99.90;;;;;;1766084;80;21190;-81
2022/05/18 09:53:10;;;;;;;9.73;7.67;;;30.60;99.90;;;;;;1761551;80;21356;-79
2022/05/18 09:55:44;;;;;;;9.85;8.28;;;30.70;99.90;;;;;;1764846;80;21700;-82
2022/05/18 09:58:17;;;;;;;10.75;8.60;;;31.00;99.90;;;;;;1766625;79;21266;-81
2022/05/18 10:00:49;;;;;;;11.33;7.75;;;30.70;99.90;;;;;;1771660;79;21223;-81
2022/05/18 10:08:30;;;;;;;11.65;8.45;;;30.60;99.90;;;;;;1774182;80;21118;-82
2022/05/18 10:11:04;;;;;;;10.05;8.33;;;30.50;99.90;;;;;;1787448;79;21197;-82
2022/05/18 10:13:37;;;;;;;11.68;8.03;;;30.90;99.90;;;;;;1778516;80;21069;-81
2022/05/18 10:16:11;;;;;;;8.95;7.42;;;30.60;99.90;;;;;;1776573;80;21197;-80
2022/05/18 10:18:45;;;;;;;10.43;7.85;;;30.50;99.90;;;;;;1778649;79;21107;-81
2022/05/18 10:21:26;;;;;;;10.32;8.40;;;30.70;99.90;;;;;;1779918;79;21622;-80
2022/05/18 10:23:55;;;;;;;12.40;8.85;;;30.80;99.90;;;;;;1763209;80;21240;-80
2022/05/18 10:26:29;;;;;;;10.72;8.50;;;30.50;99.90;;;;;;1775413;80;21180;-81
2022/05/18 10:29:02;;;;;;;11.57;8.00;;;30.50;99.90;;;;;;1779519;80;21171;-80
2022/05/18 10:31:36;;;;;;;11.03;8.55;;;30.80;99.90;;;;;;1777402;80;21715;-81
2022/05/18 10:34:09;;;;;;;12.43;9.10;;;30.50;99.90;;;;;;1770505;80;21168;-81
2022/05/18 10:36:43;;;;;;;12.50;8.23;;;30.70;99.90;;;;;;1773010;80;21605;-80
2022/05/18 10:39:20;;;;;;;8.95;7.95;;;30.50;99.90;;;;;;1766797;80;21110;-80
2022/05/18 10:41:51;;;;;;;12.07;8.10;;;30.50;99.90;;;;;;1769088;79;21606;-81
2022/05/18 10:44:23;;;;;;;10.90;8.05;;;30.70;99.90;;;;;;1776130;80;21719;-82
2022/05/18 10:47:03;;;;;;;9.55;7.20;;;30.80;99.90;;;;;;1767908;80;21281;-81
2022/05/18 10:49:35;;;;;;;12.88;8.50;;;30.50;99.90;;;;;;1761880;80;21707;-81
2022/05/18 10:52:09;;;;;;;9.23;7.85;;;30.40;99.90;;;;;;1769021;80;21631;-82
2022/05/18 10:54:41;;;;;;;10.15;7.97;;;30.70;99.90;;;;;;1764754;80;21600;-82
2022/05/18 10:57:14;;;;;;;10.30;7.87;;;30.50;99.90;;;;;;1764850;80;21664;-82
2022/05/18 10:59:48;;;;;;;13.03;9.15;;;30.40;99.90;;;;;;1774286;79;21227;-82
2022/05/18 11:02:28;;;;;;;12.78;9.15;;;30.30;99.90;;;;;;1778802;79;21111;-82
2022/05/18 11:04:59;;;;;;;10.37;8.77;;;30.50;99.90;;;;;;1778069;79;21155;-82
2022/05/18 11:07:31;;;;;;;10.75;8.28;;;30.40;99.90;;;;;;1771313;80;21281;-80
2022/05/18 11:10:02;;;;;;;12.47;9.13;;;30.80;99.90;;;;;;1768994;79;21134;-82
2022/05/18 11:12:35;;;;;;;11.48;9.00;;;30.40;99.90;;;;;;1761200;81;21207;-81
2022/05/18 11:15:09;;;;;;;14.87;9.38;;;30.40;99.90;;;;;;1767094;80;21827;-81
2022/05/18 11:17:42;;;;;;;16.87;11.12;;;30.40;99.90;;;;;;1770618;79;21091;-81
2022/05/18 11:20:16;;;;;;;14.25;10.88;;;30.60;99.90;;;;;;1767633;80;21571;-81
2022/05/18 11:22:49;;;;;;;17.67;12.73;;;30.60;99.90;;;;;;1768617;80;21234;-80
2022/05/18 11:25:23;;;;;;;12.03;10.35;;;30.30;99.90;;;;;;1759510;80;21131;-81
2022/05/18 11:27:57;;;;;;;11.68;9.65;;;30.30;99.90;;;;;;1759756;80;21130;-81
2022/05/18 11:30:32;;;;;;;10.90;9.58;;;30.40;99.90;;;;;;1762083;80;21167;-82
2022/05/18 11:33:08;;;;;;;14.00;10.03;;;30.40;99.90;;;;;;1779727;80;21194;-86
2022/05/18 11:36:15;;;;;;;10.82;9.10;;;30.30;99.90;;;;;;1711307;83;21229;-86
2022/05/18 11:38:49;;;;;;;12.65;9.00;;;30.40;99.90;;;;;;1701350;83;21281;-86
2022/05/18 11:41:22;;;;;;;12.45;9.43;;;30.40;99.90;;;;;;1674358;84;21254;-86
2022/05/18 11:43:57;;;;;;;13.08;8.83;;;30.50;99.90;;;;;;1710966;83;21223;-87
2022/05/18 11:46:30;;;;;;;13.50;10.48;;;30.40;99.90;;;;;;1691591;83;21200;-85
2022/05/18 11:49:04;;;;;;;11.20;9.85;;;30.10;99.90;;;;;;1699171;83;21254;-87
2022/05/18 11:51:55;;;;;;;16.77;11.48;;;30.10;99.90;;;;;;1711342;83;21295;-85
2022/05/18 11:54:49;;;;;;;12.80;10.50;;;30.10;99.90;;;;;;1697820;82;21186;-85
2022/05/18 11:57:22;;;;;;;13.32;10.13;;;30.20;99.90;;;;;;1712271;83;21236;-85
2022/05/18 11:59:57;;;;;;;16.02;12.00;;;30.30;99.90;;;;;;1689118;83;21344;-86
2022/05/18 12:02:31;;;;;;;16.07;12.05;;;30.40;99.90;;;;;;1694913;83;21262;-87
2022/05/18 12:05:07;;;;;;;16.70;12.05;;;30.40;99.90;;;;;;1703018;83;21260;-86
2022/05/18 12:07:41;;;;;;;15.18;11.63;;;30.20;99.90;;;;;;1702006;83;21216;-86
2022/05/18 12:10:14;;;;;;;16.02;11.75;;;30.40;99.90;;;;;;1693644;84;21228;-86
2022/05/18 12:12:49;;;;;;;15.55;11.10;;;30.10;99.90;;;;;;1721089;83;21293;-86
2022/05/18 12:15:25;;;;;;;15.38;12.30;;;30.00;99.90;;;;;;1781689;79;21172;-86
2022/05/18 12:18:01;;;;;;;23.07;13.00;;;30.30;99.90;;;;;;1758800;80;21182;-86
2022/05/18 12:20:33;;;;;;;16.37;11.97;;;30.00;99.90;;;;;;1775236;81;21229;-85
2022/05/18 12:23:06;;;;;;;14.23;10.93;;;30.00;99.90;;;;;;1778743;80;21712;-86
2022/05/18 12:25:48;;;;;;;15.98;10.88;;;30.10;99.90;;;;;;1778245;79;21108;-85
2022/05/18 12:28:18;;;;;;;13.58;10.88;;;30.30;99.90;;;;;;1772894;80;21178;-85
2022/05/18 12:30:50;;;;;;;15.88;11.10;;;30.00;99.90;;;;;;1779274;79;21186;-85
2022/05/18 12:33:23;;;;;;;14.95;11.53;;;30.10;99.90;;;;;;1779319;79;21158;-85
2022/05/18 12:35:56;;;;;;;17.02;13.00;;;29.90;99.90;;;;;;1779337;80;21170;-85
2022/05/18 12:38:30;;;;;;;16.40;12.43;;;30.10;99.90;;;;;;1778954;80;21151;-87
2022/05/18 12:41:14;;;;;;;15.60;12.13;;;30.00;99.90;;;;;;1751521;80;21170;-86
2022/05/18 12:43:48;;;;;;;15.65;11.70;;;30.00;99.90;;;;;;1766086;79;21272;-85
2022/05/18 12:46:21;;;;;;;13.43;11.93;;;29.90;99.90;;;;;;1778812;79;21230;-87
2022/05/18 12:48:55;;;;;;;15.25;12.90;;;30.00;99.90;;;;;;1778981;80;21135;-86
2022/05/18 12:51:30;;;;;;;15.83;13.00;;;29.90;99.90;;;;;;1766072;79;21215;-85
2022/05/18 12:54:06;;;;;;;16.35;12.47;;;29.90;99.90;;;;;;1773334;80;21151;-86
2022/05/18 12:56:45;;;;;;;15.85;12.53;;;30.20;99.90;;;;;;1778390;79;21147;-86
2022/05/18 12:59:19;;;;;;;19.73;13.10;;;29.90;99.90;;;;;;1777703;80;21126;-85
2022/05/18 13:02:28;;;;;;;;;;;;;;;;;;;;;
2022/05/18 13:05:15;;;;;;;13.95;11.48;;;30.20;99.90;;;;;;1760657;80;21308;-86
2022/05/18 13:07:49;;;;;;;16.93;12.15;;;30.20;99.90;;;;;;1768320;79;21197;-85
2022/05/18 13:10:26;;;;;;;15.50;11.93;;;30.00;99.90;;;;;;1784738;79;21494;-86
2022/05/18 13:13:00;;;;;;;15.30;11.95;;;29.90;99.90;;;;;;1762083;80;21399;-84
2022/05/18 13:15:36;;;;;;;14.03;11.33;;;29.90;99.90;;;;;;1783680;80;21595;-86
2022/05/18 13:18:11;;;;;;;16.10;11.77;;;30.20;99.90;;;;;;1779412;80;21123;-84
2022/05/18 13:20:48;;;;;;;17.35;12.28;;;30.20;99.90;;;;;;1779449;80;21272;-85
2022/05/18 13:23:23;;;;;;;15.90;11.08;;;30.20;99.90;;;;;;1778989;80;21252;-85
2022/05/18 13:25:56;;;;;;;15.75;11.80;;;30.20;99.90;;;;;;1781414;80;21174;-86
2022/05/18 13:28:31;;;;;;;17.05;11.68;;;30.10;99.90;;;;;;1781234;80;21259;-85
2022/05/18 13:31:05;;;;;;;19.65;14.38;;;29.80;99.90;;;;;;1778864;80;21264;-86
2022/05/18 13:33:40;;;;;;;18.77;15.55;;;30.10;99.90;;;;;;1778364;79;21126;-86
2022/05/18 13:36:11;;;;;;;18.98;15.32;;;30.00;99.90;;;;;;1778983;80;21674;-84
2022/05/18 13:38:42;;;;;;;20.02;15.35;;;29.80;99.90;;;;;;1780638;79;21175;-83
2022/05/18 13:41:14;;;;;;;18.70;13.90;;;29.90;99.90;;;;;;1780311;81;21213;-84
2022/05/18 13:43:46;;;;;;;18.98;14.43;;;30.00;99.90;;;;;;1779428;80;21193;-84
2022/05/18 13:46:20;;;;;;;18.17;14.70;;;30.00;99.90;;;;;;1780284;80;21662;-83
2022/05/18 13:48:54;;;;;;;22.13;15.65;;;29.90;99.90;;;;;;1778469;80;21256;-85
2022/05/18 13:51:27;;;;;;;20.65;15.58;;;29.70;99.90;;;;;;1779545;80;21100;-84
2022/05/18 13:54:00;;;;;;;19.37;14.93;;;29.80;99.90;;;;;;1779569;79;21158;-85
2022/05/18 13:56:34;;;;;;;20.37;15.65;;;30.00;99.90;;;;;;1781663;79;21143;-85
2022/05/18 13:59:07;;;;;;;20.90;15.15;;;30.00;99.90;;;;;;1781189;79;21146;-85
2022/05/18 14:01:45;;;;;;;21.50;16.57;;;29.70;99.90;;;;;;1779774;80;21170;-87
2022/05/18 14:04:18;;;;;;;24.27;16.35;;;29.70;99.90;;;;;;1778812;79;21650;-84